createdAt,value
2019-04-19T00:01:22.614Z,7.60
2019-04-19T00:03:53.104Z,7.60
2019-04-19T00:06:36.687Z,7.50
2019-04-19T00:09:18.415Z,7.50
2019-04-19T00:11:40.257Z,7.40
2019-04-19T00:14:04.329Z,7.40
2019-04-19T00:16:34.127Z,7.30
2019-04-19T00:19:26.581Z,7.30
2019-04-19T00:21:57.737Z,7.20
2019-04-19T00:24:05.858Z,7.20
2019-04-19T00:26:35.974Z,7.20
2019-04-19T00:29:12.095Z,7.10
2019-04-19T00:31:46.241Z,7.10
2019-04-19T00:34:08.295Z,7.10
2019-04-19T00:36:38.387Z,7.10
2019-04-19T00:39:42.603Z,7.10
2019-04-19T00:42:38.189Z,7.00
2019-04-19T00:45:15.821Z,7.00
2019-04-19T00:47:46.471Z,7.00
2019-04-19T00:50:12.766Z,6.90
2019-04-19T00:52:53.185Z,6.90
2019-04-19T00:55:12.232Z,6.90
2019-04-19T00:57:39.334Z,6.80
2019-04-19T01:00:03.873Z,6.70
2019-04-19T01:02:34.475Z,6.70
2019-04-19T01:05:10.562Z,6.70
2019-04-19T01:07:38.729Z,6.70
2019-04-19T01:10:23.715Z,6.60
2019-04-19T01:12:54.062Z,6.60
2019-04-19T01:15:21.067Z,6.60
2019-04-19T01:18:01.009Z,6.50
2019-04-19T01:20:13.811Z,6.50
2019-04-19T01:22:42.567Z,6.50
2019-04-19T01:25:19.275Z,6.40
2019-04-19T01:27:42.575Z,6.40
2019-04-19T01:30:12.526Z,6.40
2019-04-19T01:32:49.420Z,6.40
2019-04-19T01:35:15.709Z,6.40
2019-04-19T01:37:48.339Z,6.30
2019-04-19T01:40:29.739Z,6.30
2019-04-19T01:43:01.622Z,6.20
2019-04-19T01:45:54.404Z,6.20
2019-04-19T01:48:34.164Z,6.20
2019-04-19T01:51:35.664Z,6.10
2019-04-19T01:53:56.353Z,6.10
2019-04-19T01:56:15.153Z,6.00
2019-04-19T01:58:48.087Z,6.00
2019-04-19T02:01:19.210Z,6.00
2019-04-19T02:03:48.997Z,6.00
2019-04-19T02:06:17.732Z,6.00
2019-04-19T02:08:51.008Z,5.90
2019-04-19T02:11:49.551Z,5.90
2019-04-19T02:14:18.136Z,5.90
2019-04-19T02:16:49.675Z,5.80
2019-04-19T02:19:17.995Z,5.80
2019-04-19T02:21:46.044Z,5.80
2019-04-19T02:24:14.833Z,5.70
2019-04-19T02:26:50.890Z,5.70
2019-04-19T02:29:20.388Z,5.70
2019-04-19T02:32:13.652Z,5.70
2019-04-19T02:34:39.356Z,5.70
2019-04-19T02:37:16.054Z,5.60
2019-04-19T02:39:45.464Z,5.60
2019-04-19T02:42:24.406Z,5.60
2019-04-19T02:49:51.500Z,5.40
2019-04-19T02:52:27.411Z,5.40
2019-04-19T02:54:59.554Z,5.40
2019-04-19T03:05:29.645Z,5.40
2019-04-19T03:07:36.393Z,5.30
2019-04-19T03:10:12.953Z,5.30
2019-04-19T03:12:59.903Z,5.30
2019-04-19T03:15:39.328Z,5.30
2019-04-19T03:18:09.363Z,5.20
2019-04-19T03:20:33.852Z,5.20
2019-04-19T03:22:59.365Z,5.10
2019-04-19T03:25:29.049Z,5.10
2019-04-19T03:27:59.797Z,5.00
2019-04-19T03:30:46.548Z,5.00
2019-04-19T03:33:17.337Z,4.90
2019-04-19T03:35:47.945Z,4.90
2019-04-19T03:38:10.541Z,4.90
2019-04-19T03:40:39.155Z,4.90
2019-04-19T03:43:48.878Z,4.90
2019-04-19T03:46:07.837Z,4.90
2019-04-19T03:48:42.655Z,4.80
2019-04-19T03:53:44.938Z,4.80
2019-04-19T03:56:13.713Z,4.80
2019-04-19T03:58:23.469Z,4.70
2019-04-19T04:00:51.996Z,4.70
2019-04-19T04:03:34.097Z,4.70
2019-04-19T04:05:58.325Z,4.70
2019-04-19T04:08:32.938Z,4.70
2019-04-19T04:11:24.486Z,4.70
2019-04-19T04:14:16.975Z,4.70
2019-04-19T04:16:46.783Z,4.80
2019-04-19T04:19:12.459Z,4.80
2019-04-19T04:21:46.334Z,4.80
2019-04-19T04:24:21.088Z,4.90
2019-04-19T04:26:54.730Z,4.90
2019-04-19T04:29:22.482Z,4.90
2019-04-19T04:31:58.087Z,5.00
2019-04-19T04:34:27.032Z,5.00
2019-04-19T04:37:01.786Z,5.10
2019-04-19T04:39:19.574Z,5.10
2019-04-19T04:41:51.326Z,5.20
2019-04-19T04:44:41.179Z,5.30
2019-04-19T04:47:24.117Z,5.40
2019-04-19T04:50:19.441Z,5.40
2019-04-19T04:52:40.328Z,5.50
2019-04-19T04:55:15.692Z,5.70
2019-04-19T04:57:51.996Z,6.60
2019-04-19T05:00:16.053Z,7.90
2019-04-19T05:03:00.353Z,9.20
2019-04-19T05:05:34.586Z,10.40
2019-04-19T05:08:09.210Z,11.60
2019-04-19T05:10:34.484Z,12.70
2019-04-19T05:15:40.352Z,14.60
2019-04-19T05:18:18.705Z,15.40
2019-04-19T05:20:37.517Z,16.20
2019-04-19T05:23:09.507Z,16.80
2019-04-19T05:25:45.534Z,17.40
2019-04-19T05:28:16.663Z,17.90
2019-04-19T05:30:36.622Z,18.40
2019-04-19T05:33:08.547Z,18.90
2019-04-19T05:35:53.848Z,19.40
2019-04-19T05:38:30.434Z,19.90
2019-04-19T05:41:26.865Z,20.30
2019-04-19T05:44:45.049Z,20.70
2019-04-19T05:46:58.450Z,21.00
2019-04-19T05:49:26.462Z,21.20
2019-04-19T05:52:04.009Z,21.40
2019-04-19T05:54:15.355Z,21.60
2019-04-19T05:56:50.242Z,21.80
2019-04-19T05:59:30.626Z,21.90
2019-04-19T06:01:58.845Z,21.90
2019-04-19T06:04:31.383Z,22.00
2019-04-19T06:07:10.933Z,22.20
2019-04-19T06:09:19.566Z,22.40
2019-04-19T06:11:49.692Z,22.40
2019-04-19T06:14:45.081Z,22.50
2019-04-19T06:17:27.942Z,22.60
2019-04-19T06:19:58.156Z,22.70
2019-04-19T06:22:35.836Z,22.80
2019-04-19T06:25:00.816Z,22.80
2019-04-19T06:27:53.080Z,22.70
2019-04-19T06:30:11.743Z,22.70
2019-04-19T06:32:46.398Z,22.60
2019-04-19T06:35:10.709Z,22.60
2019-04-19T06:37:28.553Z,22.40
2019-04-19T06:40:06.071Z,22.20
2019-04-19T06:42:37.897Z,22.00
2019-04-19T06:45:20.111Z,21.30
2019-04-19T06:47:36.693Z,20.10
2019-04-19T06:50:00.974Z,19.00
2019-04-19T06:52:35.029Z,18.00
2019-04-19T06:55:15.322Z,17.20
2019-04-19T06:57:45.482Z,16.60
2019-04-19T07:00:20.084Z,16.00
2019-04-19T07:02:39.364Z,15.60
2019-04-19T07:05:25.445Z,15.20
2019-04-19T07:08:07.468Z,14.90
2019-04-19T07:10:38.337Z,14.70
2019-04-19T07:13:01.941Z,14.50
2019-04-19T07:17:59.887Z,14.30
2019-04-19T07:20:30.586Z,14.20
2019-04-19T07:23:02.860Z,14.10
2019-04-19T07:25:42.335Z,14.10
2019-04-19T07:28:02.515Z,14.10
2019-04-19T07:30:22.604Z,14.20
2019-04-19T07:33:02.431Z,14.20
2019-04-19T07:35:52.832Z,14.30
2019-04-19T07:38:21.179Z,14.30
2019-04-19T07:40:43.614Z,14.30
2019-04-19T07:43:20.074Z,14.40
2019-04-19T07:45:56.463Z,14.50
2019-04-19T07:48:13.617Z,14.60
2019-04-19T07:50:51.844Z,14.70
2019-04-19T07:53:19.704Z,14.80
2019-04-19T07:58:45.808Z,15.00
2019-04-19T08:04:00.193Z,15.10
2019-04-19T08:06:21.269Z,15.20
2019-04-19T08:11:33.883Z,15.40
2019-04-19T08:16:16.449Z,15.60
2019-04-19T08:28:33.222Z,16.00
2019-04-19T08:31:02.299Z,16.10
2019-04-19T08:33:29.614Z,16.20
2019-04-19T08:36:04.539Z,16.30
2019-04-19T08:38:31.193Z,16.40
2019-04-19T08:41:11.685Z,16.60
2019-04-19T08:46:13.502Z,16.80
2019-04-19T08:48:58.591Z,16.90
2019-04-19T08:51:43.286Z,17.10
2019-04-19T08:54:31.962Z,17.20
2019-04-19T08:56:53.451Z,17.30
2019-04-19T08:59:38.607Z,17.50
2019-04-19T09:02:05.284Z,17.60
2019-04-19T09:04:34.655Z,17.70
2019-04-19T09:09:40.779Z,17.90
2019-04-19T09:12:08.613Z,18.10
2019-04-19T09:14:43.305Z,18.20
2019-04-19T09:17:14.262Z,18.30
2019-04-19T09:22:09.278Z,18.60
2019-04-19T09:24:31.138Z,18.70
2019-04-19T09:27:12.678Z,18.90
2019-04-19T09:29:45.896Z,19.00
2019-04-19T09:32:05.627Z,19.20
2019-04-19T09:34:27.009Z,19.30
2019-04-19T09:37:05.502Z,19.40
2019-04-19T09:39:42.527Z,19.50
2019-04-19T09:42:03.229Z,19.60
2019-04-19T09:44:37.871Z,19.70
2019-04-19T09:46:59.691Z,19.70
2019-04-19T09:49:46.251Z,19.80
2019-04-19T09:52:30.314Z,19.90
2019-04-19T09:54:53.957Z,20.00
2019-04-19T09:57:24.275Z,20.10
2019-04-19T09:59:36.161Z,20.10
2019-04-19T10:02:06.730Z,20.20
2019-04-19T10:04:33.758Z,20.20
2019-04-19T10:07:02.999Z,20.30
2019-04-19T10:09:33.078Z,20.30
2019-04-19T10:12:02.879Z,20.40
2019-04-19T10:14:33.458Z,20.50
2019-04-19T10:17:09.502Z,20.50
2019-04-19T10:19:42.391Z,20.60
2019-04-19T10:22:16.618Z,20.60
2019-04-19T10:24:47.650Z,20.70
2019-04-19T10:27:24.969Z,20.70
2019-04-19T10:29:55.391Z,20.70
2019-04-19T10:32:30.637Z,20.80
2019-04-19T10:35:01.047Z,20.90
2019-04-19T10:37:31.541Z,20.90
2019-04-19T10:40:01.979Z,20.90
2019-04-19T10:42:31.568Z,20.90
2019-04-19T10:45:02.233Z,21.00
2019-04-19T10:47:31.908Z,21.00
2019-04-19T10:50:14.597Z,21.10
2019-04-19T10:52:33.179Z,21.10
2019-04-19T10:55:02.567Z,21.10
2019-04-19T10:57:31.812Z,21.10
2019-04-19T11:00:03.202Z,21.10
2019-04-19T11:02:36.625Z,21.10
2019-04-19T11:05:09.077Z,21.20
2019-04-19T11:07:40.179Z,21.20
2019-04-19T11:10:11.654Z,21.20
2019-04-19T11:12:40.995Z,21.20
2019-04-19T11:15:10.716Z,21.20
2019-04-19T11:17:41.255Z,21.30
2019-04-19T11:20:23.982Z,21.30
2019-04-19T11:22:41.892Z,21.40
2019-04-19T11:25:12.144Z,21.40
2019-04-19T11:27:42.860Z,21.40
2019-04-19T11:30:24.289Z,21.40
2019-04-19T11:32:54.865Z,21.40
2019-04-19T11:35:25.485Z,21.40
2019-04-19T11:37:55.134Z,21.40
2019-04-19T11:40:24.895Z,21.40
2019-04-19T11:42:55.241Z,21.50
2019-04-19T11:45:25.939Z,21.60
2019-04-19T11:47:55.426Z,21.60
2019-04-19T11:50:25.140Z,21.60
2019-04-19T11:53:16.324Z,21.60
2019-04-19T11:55:50.714Z,21.60
2019-04-19T11:58:20.223Z,21.60
2019-04-19T12:01:05.746Z,21.60
2019-04-19T12:03:38.308Z,21.60
2019-04-19T12:06:06.558Z,21.60
2019-04-19T12:08:36.306Z,21.60
2019-04-19T12:11:06.458Z,21.60
2019-04-19T12:13:38.386Z,21.70
2019-04-19T12:16:06.884Z,21.70
2019-04-19T12:18:38.891Z,21.70
2019-04-19T12:21:09.215Z,21.70
2019-04-19T12:23:39.020Z,21.70
2019-04-19T12:26:11.548Z,21.70
2019-04-19T12:28:41.699Z,21.70
2019-04-19T12:31:11.546Z,21.70
2019-04-19T12:33:41.645Z,21.70
2019-04-19T12:36:12.835Z,21.70
2019-04-19T12:38:42.104Z,21.70
2019-04-19T12:41:12.259Z,21.80
2019-04-19T12:43:41.400Z,21.70
2019-04-19T12:46:10.880Z,21.70
2019-04-19T12:48:41.529Z,21.70
2019-04-19T12:51:12.129Z,21.80
2019-04-19T12:53:45.612Z,21.80
2019-04-19T12:56:13.955Z,21.90
2019-04-19T12:58:43.976Z,21.90
2019-04-19T13:01:15.798Z,21.90
2019-04-19T13:03:54.619Z,22.00
2019-04-19T13:06:27.414Z,22.00
2019-04-19T13:08:57.086Z,22.00
2019-04-19T13:11:27.259Z,21.90
2019-04-19T13:13:57.639Z,22.00
2019-04-19T13:16:28.198Z,22.00
2019-04-19T13:18:58.467Z,22.00
2019-04-19T13:21:28.241Z,22.00
2019-04-19T13:23:58.413Z,22.00
2019-04-19T13:26:27.814Z,22.00
2019-04-19T13:28:57.640Z,22.00
2019-04-19T13:31:27.183Z,22.00
2019-04-19T13:33:57.392Z,22.00
2019-04-19T13:36:55.427Z,22.00
2019-04-19T13:39:34.532Z,22.00
2019-04-19T13:42:08.630Z,22.10
2019-04-19T13:44:38.800Z,22.10
2019-04-19T13:47:08.827Z,22.10
2019-04-19T13:49:38.092Z,22.10
2019-04-19T13:52:08.410Z,22.10
2019-04-19T13:54:38.757Z,22.10
2019-04-19T13:57:08.135Z,22.10
2019-04-19T13:59:45.636Z,22.10
2019-04-19T14:02:08.525Z,22.10
2019-04-19T14:04:37.655Z,22.10
2019-04-19T14:07:07.288Z,22.10
2019-04-19T14:09:37.122Z,22.10
2019-04-19T14:12:07.079Z,22.00
2019-04-19T14:14:37.542Z,22.00
2019-04-19T14:17:06.709Z,22.10
2019-04-19T14:19:36.584Z,22.10
2019-04-19T14:22:06.869Z,22.10
2019-04-19T14:24:37.482Z,22.10
2019-04-19T14:27:06.847Z,22.10
2019-04-19T14:29:37.253Z,22.10
2019-04-19T14:32:07.302Z,22.10
2019-04-19T14:34:37.348Z,22.00
2019-04-19T14:37:07.764Z,22.00
2019-04-19T14:39:38.476Z,22.00
2019-04-19T14:42:07.745Z,22.00
2019-04-19T14:44:37.741Z,22.00
2019-04-19T14:47:07.063Z,22.00
2019-04-19T14:49:36.791Z,22.00
2019-04-19T14:52:06.118Z,22.00
2019-04-19T14:54:35.349Z,22.00
2019-04-19T14:57:05.063Z,22.00
2019-04-19T14:59:34.279Z,22.00
2019-04-19T15:02:26.890Z,22.00
2019-04-19T15:05:05.832Z,22.00
2019-04-19T15:07:36.442Z,22.00
2019-04-19T15:10:09.204Z,22.00
2019-04-19T15:12:38.636Z,22.00
2019-04-19T15:15:10.251Z,22.00
2019-04-19T15:17:40.857Z,22.00
2019-04-19T15:20:11.775Z,22.00
2019-04-19T15:22:42.211Z,22.00
2019-04-19T15:25:12.855Z,21.90
2019-04-19T15:27:44.438Z,21.90
2019-04-19T15:30:15.005Z,21.90
2019-04-19T15:32:44.571Z,21.90
2019-04-19T15:35:14.411Z,21.80
2019-04-19T15:37:43.962Z,21.90
2019-04-19T15:40:16.090Z,21.80
2019-04-19T15:42:45.243Z,21.80
2019-04-19T15:45:16.653Z,21.70
2019-04-19T15:47:46.654Z,21.70
2019-04-19T15:50:16.258Z,21.70
2019-04-19T15:52:46.259Z,21.70
2019-04-19T15:55:17.748Z,21.70
2019-04-19T15:57:48.460Z,21.70
2019-04-19T16:00:25.813Z,21.60
2019-04-19T16:03:04.326Z,21.50
2019-04-19T16:05:51.933Z,21.50
2019-04-19T16:08:45.113Z,21.50
2019-04-19T16:11:30.969Z,21.50
2019-04-19T16:14:00.228Z,21.40
2019-04-19T16:16:29.671Z,21.40
2019-04-19T16:18:58.819Z,21.40
2019-04-19T16:21:35.705Z,21.30
2019-04-19T16:23:58.759Z,21.30
2019-04-19T16:26:28.793Z,21.30
2019-04-19T16:28:58.019Z,21.20
2019-04-19T16:31:28.407Z,21.20
2019-04-19T16:33:58.547Z,21.10
2019-04-19T16:36:28.970Z,21.10
2019-04-19T16:38:58.819Z,21.10
2019-04-19T16:41:28.969Z,21.00
2019-04-19T16:43:58.162Z,20.90
2019-04-19T16:46:34.184Z,20.90
2019-04-19T16:49:04.946Z,20.80
2019-04-19T16:51:43.767Z,20.80
2019-04-19T16:54:05.014Z,20.80
2019-04-19T16:56:35.490Z,20.70
2019-04-19T16:59:06.243Z,20.60
2019-04-19T17:01:36.668Z,20.60
2019-04-19T17:04:06.018Z,20.50
2019-04-19T17:06:36.178Z,20.40
2019-04-19T17:09:08.888Z,20.30
2019-04-19T17:11:38.059Z,20.30
2019-04-19T17:14:07.260Z,20.20
2019-04-19T17:17:04.631Z,20.00
2019-04-19T17:19:42.628Z,19.90
2019-04-19T17:22:16.793Z,19.80
2019-04-19T17:24:43.132Z,19.70
2019-04-19T17:27:13.537Z,19.50
2019-04-19T17:29:43.322Z,19.40
2019-04-19T17:32:12.688Z,19.30
2019-04-19T17:34:42.431Z,19.20
2019-04-19T17:37:11.935Z,19.10
2019-04-19T17:39:42.441Z,18.90
2019-04-19T17:42:12.989Z,18.80
2019-04-19T17:44:43.875Z,18.70
2019-04-19T17:47:16.525Z,18.60
2019-04-19T17:49:46.477Z,18.50
2019-04-19T17:52:21.407Z,18.30
2019-04-19T17:55:00.428Z,18.20
2019-04-19T17:57:17.425Z,18.00
2019-04-19T17:59:48.041Z,17.90
2019-04-19T18:02:17.306Z,17.70
2019-04-19T18:04:46.357Z,17.60
2019-04-19T18:07:15.482Z,17.40
2019-04-19T18:09:48.509Z,17.20
2019-04-19T18:12:15.423Z,17.10
2019-04-19T18:14:45.767Z,16.90
2019-04-19T18:17:16.684Z,16.70
2019-04-19T18:19:47.291Z,16.50
2019-04-19T18:22:25.749Z,16.30
2019-04-19T18:24:55.928Z,16.10
2019-04-19T18:27:25.155Z,16.00
2019-04-19T18:29:57.043Z,15.80
2019-04-19T18:32:30.110Z,15.60
2019-04-19T18:35:00.051Z,15.40
2019-04-19T18:37:35.938Z,15.30
2019-04-19T18:40:00.446Z,15.20
2019-04-19T18:42:29.592Z,15.10
2019-04-19T18:45:01.599Z,14.90
2019-04-19T18:47:29.605Z,14.80
2019-04-19T18:49:59.402Z,14.70
2019-04-19T18:52:39.419Z,14.50
2019-04-19T18:55:06.742Z,14.40
2019-04-19T18:57:33.920Z,14.30
2019-04-19T19:00:02.290Z,14.20
2019-04-19T19:02:32.277Z,14.10
2019-04-19T19:05:05.618Z,14.00
2019-04-19T19:07:32.935Z,13.90
2019-04-19T19:10:04.143Z,13.90
2019-04-19T19:12:34.683Z,13.80
2019-04-19T19:15:04.697Z,13.70
2019-04-19T19:17:36.032Z,13.60
2019-04-19T19:20:16.045Z,13.40
2019-04-19T19:22:56.277Z,13.30
2019-04-19T19:25:24.759Z,13.10
2019-04-19T19:27:41.899Z,13.00
2019-04-19T19:30:13.165Z,12.90
2019-04-19T19:32:48.391Z,12.80
2019-04-19T19:35:19.621Z,12.80
2019-04-19T19:37:46.203Z,12.60
2019-04-19T19:40:27.870Z,12.50
2019-04-19T19:43:07.587Z,12.50
2019-04-19T19:45:36.380Z,12.40
2019-04-19T19:48:25.986Z,12.30
2019-04-19T19:51:12.863Z,12.30
2019-04-19T19:53:40.306Z,12.20
2019-04-19T19:56:11.394Z,12.10
2019-04-19T19:58:25.606Z,12.00
2019-04-19T20:01:03.461Z,11.90
2019-04-19T20:03:23.918Z,11.90
2019-04-19T20:05:46.076Z,11.80
2019-04-19T20:08:21.237Z,11.70
2019-04-19T20:10:49.517Z,11.60
2019-04-19T20:13:18.458Z,11.50
2019-04-19T20:15:49.680Z,11.40
2019-04-19T20:18:24.147Z,11.30
2019-04-19T20:20:52.442Z,11.20
2019-04-19T20:23:28.504Z,11.10
2019-04-19T20:26:04.426Z,11.00
2019-04-19T20:28:28.524Z,10.90
2019-04-19T20:30:58.377Z,10.90
2019-04-19T20:33:33.153Z,10.80
2019-04-19T20:36:00.581Z,10.80
2019-04-19T20:38:35.643Z,10.70
2019-04-19T20:41:02.464Z,10.60
2019-04-19T20:43:43.685Z,10.50
2019-04-19T20:46:08.212Z,10.50
2019-04-19T20:48:32.112Z,10.40
2019-04-19T20:51:10.736Z,10.40
2019-04-19T20:53:42.922Z,10.30
2019-04-19T20:56:48.536Z,10.30
2019-04-19T20:58:58.519Z,10.30
2019-04-19T21:01:28.605Z,10.30
2019-04-19T21:04:03.108Z,10.30
2019-04-19T21:06:31.378Z,10.30
2019-04-19T21:09:01.127Z,10.30
2019-04-19T21:11:35.871Z,10.30
2019-04-19T21:14:07.407Z,10.30
2019-04-19T21:16:37.515Z,10.30
2019-04-19T21:19:10.156Z,10.30
2019-04-19T21:21:41.048Z,10.20
2019-04-19T21:24:11.741Z,10.20
2019-04-19T21:26:39.756Z,10.10
2019-04-19T21:29:11.722Z,10.00
2019-04-19T21:31:45.874Z,10.00
2019-04-19T21:34:12.548Z,9.90
2019-04-19T21:36:50.277Z,9.80
2019-04-19T21:39:15.445Z,9.70
2019-04-19T21:41:45.038Z,9.60
2019-04-19T21:44:19.206Z,9.50
2019-04-19T21:46:46.053Z,9.50
2019-04-19T21:49:19.527Z,9.50
2019-04-19T21:51:46.606Z,9.40
2019-04-19T21:54:16.657Z,9.50
2019-04-19T21:56:49.404Z,9.50
2019-04-19T21:59:20.993Z,9.50
2019-04-19T22:01:51.113Z,9.40
2019-04-19T22:04:19.514Z,9.40
2019-04-19T22:06:56.150Z,9.40
2019-04-19T22:09:22.082Z,9.40
2019-04-19T22:11:50.703Z,9.30
2019-04-19T22:14:25.684Z,9.30
2019-04-19T22:16:50.771Z,9.20
2019-04-19T22:19:25.221Z,9.10
2019-04-19T22:21:51.994Z,9.10
2019-04-19T22:24:29.071Z,9.00
2019-04-19T22:26:55.797Z,9.00
2019-04-19T22:29:23.826Z,8.90
2019-04-19T22:31:56.483Z,8.90
2019-04-19T22:34:24.295Z,8.80
2019-04-19T22:36:55.656Z,8.80
2019-04-19T22:39:25.588Z,8.80
2019-04-19T22:41:54.906Z,8.80
2019-04-19T22:44:25.081Z,8.70
2019-04-19T22:46:56.463Z,8.70
2019-04-19T22:49:28.059Z,8.60
2019-04-19T22:51:56.519Z,8.50
2019-04-19T22:54:26.597Z,8.50
2019-04-19T22:57:04.614Z,8.40
2019-04-19T22:59:27.654Z,8.30
2019-04-19T23:02:10.840Z,8.20
2019-04-19T23:04:43.710Z,8.20
2019-04-19T23:07:12.558Z,8.10
2019-04-19T23:09:42.259Z,8.00
2019-04-19T23:12:12.397Z,8.00
2019-04-19T23:14:52.556Z,7.90
2019-04-19T23:17:30.422Z,7.90
2019-04-19T23:19:55.659Z,7.90
2019-04-19T23:22:30.774Z,7.80
2019-04-19T23:25:00.811Z,7.80
2019-04-19T23:27:38.177Z,7.80
2019-04-19T23:30:13.842Z,7.70
2019-04-19T23:32:41.143Z,7.70
2019-04-19T23:35:11.980Z,7.70
2019-04-19T23:37:42.518Z,7.70
2019-04-19T23:40:13.126Z,7.60
2019-04-19T23:42:45.418Z,7.60
2019-04-19T23:45:14.327Z,7.50
2019-04-19T23:47:47.335Z,7.50
2019-04-19T23:50:15.480Z,7.40
2019-04-19T23:52:52.087Z,7.40
2019-04-19T23:55:16.593Z,7.30
2019-04-19T23:57:49.264Z,7.30
